sensor_id;sensor_type;location;lat;lon;timestamp;temperature;humidity
72126;SHT31;59999;51.676;22.650;2024-02-23T00:00:42;7.58;79.41
72126;SHT31;59999;51.676;22.650;2024-02-23T00:03:27;7.56;79.32
72126;SHT31;59999;51.676;22.650;2024-02-23T00:05:53;7.58;79.26
72126;SHT31;59999;51.676;22.650;2024-02-23T00:08:19;7.56;79.37
72126;SHT31;59999;51.676;22.650;2024-02-23T00:10:45;7.54;79.58
72126;SHT31;59999;51.676;22.650;2024-02-23T00:13:11;7.52;79.83
72126;SHT31;59999;51.676;22.650;2024-02-23T00:15:37;7.48;79.78
72126;SHT31;59999;51.676;22.650;2024-02-23T00:18:03;7.49;79.94
72126;SHT31;59999;51.676;22.650;2024-02-23T00:20:29;7.49;79.87
72126;SHT31;59999;51.676;22.650;2024-02-23T00:22:55;7.54;79.94
72126;SHT31;59999;51.676;22.650;2024-02-23T00:25:21;7.51;79.93
72126;SHT31;59999;51.676;22.650;2024-02-23T00:27:48;7.56;79.81
72126;SHT31;59999;51.676;22.650;2024-02-23T00:30:14;7.59;79.86
72126;SHT31;59999;51.676;22.650;2024-02-23T00:32:40;7.56;80.09
72126;SHT31;59999;51.676;22.650;2024-02-23T00:35:06;7.59;79.79
72126;SHT31;59999;51.676;22.650;2024-02-23T00:37:32;7.55;80.06
72126;SHT31;59999;51.676;22.650;2024-02-23T00:40:04;7.61;79.98
72126;SHT31;59999;51.676;22.650;2024-02-23T00:42:30;7.56;80.26
72126;SHT31;59999;51.676;22.650;2024-02-23T00:44:56;7.58;80.47
72126;SHT31;59999;51.676;22.650;2024-02-23T00:47:22;7.48;80.84
72126;SHT31;59999;51.676;22.650;2024-02-23T00:49:48;7.49;80.86
72126;SHT31;59999;51.676;22.650;2024-02-23T00:52:14;7.44;80.99
72126;SHT31;59999;51.676;22.650;2024-02-23T00:54:40;7.44;81.17
72126;SHT31;59999;51.676;22.650;2024-02-23T00:57:06;7.48;80.61
72126;SHT31;59999;51.676;22.650;2024-02-23T00:59:32;7.49;80.88
72126;SHT31;59999;51.676;22.650;2024-02-23T01:01:58;7.51;80.82
72126;SHT31;59999;51.676;22.650;2024-02-23T01:04:24;7.49;80.77
72126;SHT31;59999;51.676;22.650;2024-02-23T01:06:49;7.52;80.68
72126;SHT31;59999;51.676;22.650;2024-02-23T01:09:15;7.54;80.33
72126;SHT31;59999;51.676;22.650;2024-02-23T01:11:46;7.59;80.31
72126;SHT31;59999;51.676;22.650;2024-02-23T01:14:12;7.61;80.31
72126;SHT31;59999;51.676;22.650;2024-02-23T01:16:38;7.62;80.54
72126;SHT31;59999;51.676;22.650;2024-02-23T01:19:04;7.62;80.13
72126;SHT31;59999;51.676;22.650;2024-02-23T01:21:30;7.66;80.11
72126;SHT31;59999;51.676;22.650;2024-02-23T01:23:56;7.66;80.37
72126;SHT31;59999;51.676;22.650;2024-02-23T01:26:23;7.65;80.38
72126;SHT31;59999;51.676;22.650;2024-02-23T01:28:49;7.70;80.17
72126;SHT31;59999;51.676;22.650;2024-02-23T01:31:15;7.67;80.39
72126;SHT31;59999;51.676;22.650;2024-02-23T01:33:41;7.72;80.36
72126;SHT31;59999;51.676;22.650;2024-02-23T01:36:07;7.70;80.45
72126;SHT31;59999;51.676;22.650;2024-02-23T01:38:34;7.70;80.41
72126;SHT31;59999;51.676;22.650;2024-02-23T01:41:00;7.76;80.22
72126;SHT31;59999;51.676;22.650;2024-02-23T01:43:26;7.70;80.42
72126;SHT31;59999;51.676;22.650;2024-02-23T01:45:53;7.73;80.42
72126;SHT31;59999;51.676;22.650;2024-02-23T01:48:20;7.77;80.51
72126;SHT31;59999;51.676;22.650;2024-02-23T01:50:46;7.76;80.88
72126;SHT31;59999;51.676;22.650;2024-02-23T01:53:12;7.75;81.31
72126;SHT31;59999;51.676;22.650;2024-02-23T01:55:41;7.73;81.28
72126;SHT31;59999;51.676;22.650;2024-02-23T01:58:08;7.72;81.46
72126;SHT31;59999;51.676;22.650;2024-02-23T02:00:34;7.72;81.58
72126;SHT31;59999;51.676;22.650;2024-02-23T02:03:00;7.75;81.56
72126;SHT31;59999;51.676;22.650;2024-02-23T02:05:27;7.72;81.85
72126;SHT31;59999;51.676;22.650;2024-02-23T02:07:55;7.76;81.67
72126;SHT31;59999;51.676;22.650;2024-02-23T02:10:24;7.75;81.77
72126;SHT31;59999;51.676;22.650;2024-02-23T02:12:50;7.77;81.66
72126;SHT31;59999;51.676;22.650;2024-02-23T02:15:16;7.75;81.63
72126;SHT31;59999;51.676;22.650;2024-02-23T02:17:43;7.76;81.70
72126;SHT31;59999;51.676;22.650;2024-02-23T02:20:11;7.73;81.61
72126;SHT31;59999;51.676;22.650;2024-02-23T02:22:37;7.80;81.39
72126;SHT31;59999;51.676;22.650;2024-02-23T02:25:04;7.82;81.36
72126;SHT31;59999;51.676;22.650;2024-02-23T02:27:30;7.82;81.42
72126;SHT31;59999;51.676;22.650;2024-02-23T02:29:55;7.86;81.34
72126;SHT31;59999;51.676;22.650;2024-02-23T02:32:22;7.82;81.41
72126;SHT31;59999;51.676;22.650;2024-02-23T02:34:48;7.84;81.25
72126;SHT31;59999;51.676;22.650;2024-02-23T02:37:14;7.84;81.23
72126;SHT31;59999;51.676;22.650;2024-02-23T02:39:39;7.90;81.08
72126;SHT31;59999;51.676;22.650;2024-02-23T02:42:05;7.90;80.78
72126;SHT31;59999;51.676;22.650;2024-02-23T02:44:31;7.93;80.87
72126;SHT31;59999;51.676;22.650;2024-02-23T02:46:57;7.98;80.54
72126;SHT31;59999;51.676;22.650;2024-02-23T02:49:23;8.00;80.62
72126;SHT31;59999;51.676;22.650;2024-02-23T02:51:50;8.00;80.53
72126;SHT31;59999;51.676;22.650;2024-02-23T02:54:15;8.01;80.27
72126;SHT31;59999;51.676;22.650;2024-02-23T02:56:42;8.07;80.34
72126;SHT31;59999;51.676;22.650;2024-02-23T02:59:09;8.01;80.32
72126;SHT31;59999;51.676;22.650;2024-02-23T03:01:36;8.05;80.18
72126;SHT31;59999;51.676;22.650;2024-02-23T03:04:01;8.08;80.20
72126;SHT31;59999;51.676;22.650;2024-02-23T03:06:28;8.10;80.08
72126;SHT31;59999;51.676;22.650;2024-02-23T03:08:53;8.11;80.02
72126;SHT31;59999;51.676;22.650;2024-02-23T03:11:19;8.07;80.14
72126;SHT31;59999;51.676;22.650;2024-02-23T03:13:45;8.07;80.23
72126;SHT31;59999;51.676;22.650;2024-02-23T03:16:17;8.03;80.10
72126;SHT31;59999;51.676;22.650;2024-02-23T03:18:44;8.08;80.10
72126;SHT31;59999;51.676;22.650;2024-02-23T03:21:11;8.07;80.06
72126;SHT31;59999;51.676;22.650;2024-02-23T03:23:37;8.13;79.85
72126;SHT31;59999;51.676;22.650;2024-02-23T03:26:03;8.14;79.60
72126;SHT31;59999;51.676;22.650;2024-02-23T03:28:29;8.15;79.82
72126;SHT31;59999;51.676;22.650;2024-02-23T03:30:55;8.14;79.70
72126;SHT31;59999;51.676;22.650;2024-02-23T03:33:20;8.11;79.96
72126;SHT31;59999;51.676;22.650;2024-02-23T03:35:46;8.11;79.72
72126;SHT31;59999;51.676;22.650;2024-02-23T03:38:12;8.15;79.66
72126;SHT31;59999;51.676;22.650;2024-02-23T03:40:38;8.17;79.76
72126;SHT31;59999;51.676;22.650;2024-02-23T03:43:04;8.11;79.91
72126;SHT31;59999;51.676;22.650;2024-02-23T03:45:31;8.11;79.71
72126;SHT31;59999;51.676;22.650;2024-02-23T03:47:57;8.17;79.60
72126;SHT31;59999;51.676;22.650;2024-02-23T03:50:23;8.14;79.69
72126;SHT31;59999;51.676;22.650;2024-02-23T03:52:49;8.20;79.60
72126;SHT31;59999;51.676;22.650;2024-02-23T03:55:15;8.21;79.92
72126;SHT31;59999;51.676;22.650;2024-02-23T03:57:41;8.18;80.43
72126;SHT31;59999;51.676;22.650;2024-02-23T04:00:07;8.17;80.45
72126;SHT31;59999;51.676;22.650;2024-02-23T04:02:34;8.18;80.35
72126;SHT31;59999;51.676;22.650;2024-02-23T04:05:00;8.21;80.35
72126;SHT31;59999;51.676;22.650;2024-02-23T04:07:26;8.23;80.10
72126;SHT31;59999;51.676;22.650;2024-02-23T04:09:52;8.24;80.19
72126;SHT31;59999;51.676;22.650;2024-02-23T04:12:23;8.30;79.50
72126;SHT31;59999;51.676;22.650;2024-02-23T04:14:50;8.34;79.28
72126;SHT31;59999;51.676;22.650;2024-02-23T04:17:15;8.33;79.26
72126;SHT31;59999;51.676;22.650;2024-02-23T04:19:42;8.38;79.43
72126;SHT31;59999;51.676;22.650;2024-02-23T04:22:09;8.40;79.51
72126;SHT31;59999;51.676;22.650;2024-02-23T04:24:39;8.44;79.14
72126;SHT31;59999;51.676;22.650;2024-02-23T04:27:06;8.46;79.27
72126;SHT31;59999;51.676;22.650;2024-02-23T04:29:32;8.42;79.21
72126;SHT31;59999;51.676;22.650;2024-02-23T04:32:00;8.42;79.97
72126;SHT31;59999;51.676;22.650;2024-02-23T04:34:26;8.42;80.20
72126;SHT31;59999;51.676;22.650;2024-02-23T04:36:51;8.35;80.57
72126;SHT31;59999;51.676;22.650;2024-02-23T04:39:18;8.30;80.51
72126;SHT31;59999;51.676;22.650;2024-02-23T04:41:43;8.33;80.49
72126;SHT31;59999;51.676;22.650;2024-02-23T04:44:09;8.27;81.04
72126;SHT31;59999;51.676;22.650;2024-02-23T04:46:35;8.33;80.77
72126;SHT31;59999;51.676;22.650;2024-02-23T04:49:01;8.28;80.94
72126;SHT31;59999;51.676;22.650;2024-02-23T04:51:27;8.30;80.63
72126;SHT31;59999;51.676;22.650;2024-02-23T04:53:53;8.33;80.66
72126;SHT31;59999;51.676;22.650;2024-02-23T04:56:19;8.34;80.52
72126;SHT31;59999;51.676;22.650;2024-02-23T04:58:46;8.37;80.32
72126;SHT31;59999;51.676;22.650;2024-02-23T05:01:12;8.41;80.34
72126;SHT31;59999;51.676;22.650;2024-02-23T05:03:38;8.40;80.51
72126;SHT31;59999;51.676;22.650;2024-02-23T05:06:04;8.37;80.85
72126;SHT31;59999;51.676;22.650;2024-02-23T05:08:30;8.37;80.54
72126;SHT31;59999;51.676;22.650;2024-02-23T05:10:57;8.38;80.39
72126;SHT31;59999;51.676;22.650;2024-02-23T05:13:24;8.41;80.41
72126;SHT31;59999;51.676;22.650;2024-02-23T05:15:50;8.40;80.54
72126;SHT31;59999;51.676;22.650;2024-02-23T05:18:17;8.38;81.24
72126;SHT31;59999;51.676;22.650;2024-02-23T05:20:42;8.30;81.69
72126;SHT31;59999;51.676;22.650;2024-02-23T05:23:08;8.28;81.50
72126;SHT31;59999;51.676;22.650;2024-02-23T05:25:34;8.28;82.20
72126;SHT31;59999;51.676;22.650;2024-02-23T05:28:00;8.18;82.81
72126;SHT31;59999;51.676;22.650;2024-02-23T05:30:26;8.13;83.28
72126;SHT31;59999;51.676;22.650;2024-02-23T05:32:57;8.07;83.43
72126;SHT31;59999;51.676;22.650;2024-02-23T05:35:24;8.08;83.65
72126;SHT31;59999;51.676;22.650;2024-02-23T05:37:52;8.01;84.15
72126;SHT31;59999;51.676;22.650;2024-02-23T05:40:17;8.01;83.91
72126;SHT31;59999;51.676;22.650;2024-02-23T05:42:43;8.00;84.26
72126;SHT31;59999;51.676;22.650;2024-02-23T05:45:09;8.00;84.42
72126;SHT31;59999;51.676;22.650;2024-02-23T05:47:36;8.00;84.14
72126;SHT31;59999;51.676;22.650;2024-02-23T05:50:03;8.03;84.25
72126;SHT31;59999;51.676;22.650;2024-02-23T05:52:31;7.96;84.74
72126;SHT31;59999;51.676;22.650;2024-02-23T05:54:57;7.96;84.43
72126;SHT31;59999;51.676;22.650;2024-02-23T05:57:23;8.03;84.02
72126;SHT31;59999;51.676;22.650;2024-02-23T05:59:49;8.03;84.02
72126;SHT31;59999;51.676;22.650;2024-02-23T06:02:16;8.01;84.44
72126;SHT31;59999;51.676;22.650;2024-02-23T06:04:41;8.08;83.67
72126;SHT31;59999;51.676;22.650;2024-02-23T06:07:07;8.08;84.28
72126;SHT31;59999;51.676;22.650;2024-02-23T06:09:33;8.04;84.25
72126;SHT31;59999;51.676;22.650;2024-02-23T06:11:59;8.01;84.79
72126;SHT31;59999;51.676;22.650;2024-02-23T06:14:25;8.04;84.78
72126;SHT31;59999;51.676;22.650;2024-02-23T06:16:51;8.03;85.19
72126;SHT31;59999;51.676;22.650;2024-02-23T06:19:17;8.01;85.16
72126;SHT31;59999;51.676;22.650;2024-02-23T06:21:42;7.96;85.38
72126;SHT31;59999;51.676;22.650;2024-02-23T06:24:08;7.98;85.04
72126;SHT31;59999;51.676;22.650;2024-02-23T06:26:35;7.96;85.22
72126;SHT31;59999;51.676;22.650;2024-02-23T06:29:00;8.00;85.42
72126;SHT31;59999;51.676;22.650;2024-02-23T06:31:26;8.05;85.09
72126;SHT31;59999;51.676;22.650;2024-02-23T06:33:52;8.00;85.86
72126;SHT31;59999;51.676;22.650;2024-02-23T06:36:18;7.94;85.96
72126;SHT31;59999;51.676;22.650;2024-02-23T06:38:44;7.97;85.94
72126;SHT31;59999;51.676;22.650;2024-02-23T06:41:13;7.94;86.25
72126;SHT31;59999;51.676;22.650;2024-02-23T06:43:39;7.93;86.53
72126;SHT31;59999;51.676;22.650;2024-02-23T06:46:09;7.94;86.31
72126;SHT31;59999;51.676;22.650;2024-02-23T06:48:35;7.96;86.34
72126;SHT31;59999;51.676;22.650;2024-02-23T06:51:03;7.96;86.06
72126;SHT31;59999;51.676;22.650;2024-02-23T06:53:29;7.94;86.73
72126;SHT31;59999;51.676;22.650;2024-02-23T06:55:55;7.89;86.93
72126;SHT31;59999;51.676;22.650;2024-02-23T06:58:21;7.87;87.38
72126;SHT31;59999;51.676;22.650;2024-02-23T07:00:47;7.86;87.53
72126;SHT31;59999;51.676;22.650;2024-02-23T07:03:13;7.89;87.13
72126;SHT31;59999;51.676;22.650;2024-02-23T07:05:40;7.86;87.77
72126;SHT31;59999;51.676;22.650;2024-02-23T07:08:08;7.89;87.64
72126;SHT31;59999;51.676;22.650;2024-02-23T07:10:34;7.86;87.69
72126;SHT31;59999;51.676;22.650;2024-02-23T07:12:59;7.86;87.84
72126;SHT31;59999;51.676;22.650;2024-02-23T07:15:25;7.83;88.06
72126;SHT31;59999;51.676;22.650;2024-02-23T07:17:52;7.87;88.22
72126;SHT31;59999;51.676;22.650;2024-02-23T07:20:18;7.87;88.24
72126;SHT31;59999;51.676;22.650;2024-02-23T07:22:44;7.87;88.49
72126;SHT31;59999;51.676;22.650;2024-02-23T07:25:11;7.90;88.08
72126;SHT31;59999;51.676;22.650;2024-02-23T07:27:37;7.84;88.28
72126;SHT31;59999;51.676;22.650;2024-02-23T07:30:04;7.86;88.08
72126;SHT31;59999;51.676;22.650;2024-02-23T07:32:30;7.89;88.42
72126;SHT31;59999;51.676;22.650;2024-02-23T07:34:56;7.90;88.49
72126;SHT31;59999;51.676;22.650;2024-02-23T07:37:21;7.86;88.39
72126;SHT31;59999;51.676;22.650;2024-02-23T07:39:47;7.89;88.32
72126;SHT31;59999;51.676;22.650;2024-02-23T07:42:13;7.89;88.21
72126;SHT31;59999;51.676;22.650;2024-02-23T07:44:40;7.87;88.40
72126;SHT31;59999;51.676;22.650;2024-02-23T07:47:06;7.94;88.33
72126;SHT31;59999;51.676;22.650;2024-02-23T07:49:32;7.93;88.08
72126;SHT31;59999;51.676;22.650;2024-02-23T07:51:57;7.93;88.33
72126;SHT31;59999;51.676;22.650;2024-02-23T07:54:23;7.96;88.53
72126;SHT31;59999;51.676;22.650;2024-02-23T07:56:49;7.96;88.60
72126;SHT31;59999;51.676;22.650;2024-02-23T07:59:15;7.97;87.89
72126;SHT31;59999;51.676;22.650;2024-02-23T08:01:41;7.97;88.16
72126;SHT31;59999;51.676;22.650;2024-02-23T08:04:07;7.98;88.15
72126;SHT31;59999;51.676;22.650;2024-02-23T08:06:32;8.01;88.15
72126;SHT31;59999;51.676;22.650;2024-02-23T08:08:58;8.03;88.34
72126;SHT31;59999;51.676;22.650;2024-02-23T08:11:24;8.05;88.15
72126;SHT31;59999;51.676;22.650;2024-02-23T08:13:50;8.10;88.18
72126;SHT31;59999;51.676;22.650;2024-02-23T08:16:16;8.11;88.44
72126;SHT31;59999;51.676;22.650;2024-02-23T08:18:43;8.10;88.34
72126;SHT31;59999;51.676;22.650;2024-02-23T08:21:10;8.13;88.47
72126;SHT31;59999;51.676;22.650;2024-02-23T08:23:36;8.18;88.52
72126;SHT31;59999;51.676;22.650;2024-02-23T08:26:02;8.18;88.56
72126;SHT31;59999;51.676;22.650;2024-02-23T08:28:28;8.21;88.23
72126;SHT31;59999;51.676;22.650;2024-02-23T08:30:55;8.23;88.50
72126;SHT31;59999;51.676;22.650;2024-02-23T08:33:21;8.24;88.69
72126;SHT31;59999;51.676;22.650;2024-02-23T08:35:47;8.27;88.10
72126;SHT31;59999;51.676;22.650;2024-02-23T08:38:14;8.30;88.07
72126;SHT31;59999;51.676;22.650;2024-02-23T08:40:40;8.31;88.10
72126;SHT31;59999;51.676;22.650;2024-02-23T08:43:06;8.35;88.28
72126;SHT31;59999;51.676;22.650;2024-02-23T08:45:31;8.34;88.38
72126;SHT31;59999;51.676;22.650;2024-02-23T08:47:57;8.40;88.65
72126;SHT31;59999;51.676;22.650;2024-02-23T08:50:23;8.46;88.22
72126;SHT31;59999;51.676;22.650;2024-02-23T08:52:49;8.56;88.18
72126;SHT31;59999;51.676;22.650;2024-02-23T08:55:15;8.59;87.76
72126;SHT31;59999;51.676;22.650;2024-02-23T08:57:41;8.66;87.98
72126;SHT31;59999;51.676;22.650;2024-02-23T09:00:07;8.68;87.49
72126;SHT31;59999;51.676;22.650;2024-02-23T09:02:33;8.69;87.68
72126;SHT31;59999;51.676;22.650;2024-02-23T09:05:01;8.66;87.61
72126;SHT31;59999;51.676;22.650;2024-02-23T09:07:27;8.71;87.92
72126;SHT31;59999;51.676;22.650;2024-02-23T09:09:53;8.69;87.42
72126;SHT31;59999;51.676;22.650;2024-02-23T09:12:20;8.76;87.99
72126;SHT31;59999;51.676;22.650;2024-02-23T09:14:45;8.76;87.70
72126;SHT31;59999;51.676;22.650;2024-02-23T09:17:11;8.71;87.50
72126;SHT31;59999;51.676;22.650;2024-02-23T09:19:38;8.68;87.94
72126;SHT31;59999;51.676;22.650;2024-02-23T09:22:04;8.65;87.89
72126;SHT31;59999;51.676;22.650;2024-02-23T09:24:30;8.63;87.85
72126;SHT31;59999;51.676;22.650;2024-02-23T09:26:56;8.58;87.43
72126;SHT31;59999;51.676;22.650;2024-02-23T09:29:22;8.54;88.04
72126;SHT31;59999;51.676;22.650;2024-02-23T09:31:47;8.51;88.16
72126;SHT31;59999;51.676;22.650;2024-02-23T09:34:13;8.48;88.50
72126;SHT31;59999;51.676;22.650;2024-02-23T09:36:39;8.46;88.94
72126;SHT31;59999;51.676;22.650;2024-02-23T09:39:05;8.41;88.70
72126;SHT31;59999;51.676;22.650;2024-02-23T09:41:31;8.44;88.87
72126;SHT31;59999;51.676;22.650;2024-02-23T09:43:58;8.48;88.76
72126;SHT31;59999;51.676;22.650;2024-02-23T09:46:25;8.54;88.39
72126;SHT31;59999;51.676;22.650;2024-02-23T09:48:51;8.58;88.66
72126;SHT31;59999;51.676;22.650;2024-02-23T09:51:17;8.65;88.13
72126;SHT31;59999;51.676;22.650;2024-02-23T09:53:44;8.79;88.81
72126;SHT31;59999;51.676;22.650;2024-02-23T09:56:10;8.80;88.34
72126;SHT31;59999;51.676;22.650;2024-02-23T09:58:37;8.86;87.75
72126;SHT31;59999;51.676;22.650;2024-02-23T10:01:03;8.92;87.84
72126;SHT31;59999;51.676;22.650;2024-02-23T10:03:30;8.86;87.99
72126;SHT31;59999;51.676;22.650;2024-02-23T10:05:57;8.84;87.78
72126;SHT31;59999;51.676;22.650;2024-02-23T10:08:23;8.77;87.78
72126;SHT31;59999;51.676;22.650;2024-02-23T10:10:49;8.79;87.67
72126;SHT31;59999;51.676;22.650;2024-02-23T10:13:19;8.75;87.88
72126;SHT31;59999;51.676;22.650;2024-02-23T10:15:52;8.75;88.18
72126;SHT31;59999;51.676;22.650;2024-02-23T10:18:19;8.73;88.32
72126;SHT31;59999;51.676;22.650;2024-02-23T10:20:46;8.72;88.08
72126;SHT31;59999;51.676;22.650;2024-02-23T10:23:12;8.69;88.09
72126;SHT31;59999;51.676;22.650;2024-02-23T10:25:37;8.65;88.36
72126;SHT31;59999;51.676;22.650;2024-02-23T10:28:06;8.66;88.28
72126;SHT31;59999;51.676;22.650;2024-02-23T10:30:32;8.75;88.13
72126;SHT31;59999;51.676;22.650;2024-02-23T10:32:59;8.79;88.39
72126;SHT31;59999;51.676;22.650;2024-02-23T10:35:25;8.84;87.87
72126;SHT31;59999;51.676;22.650;2024-02-23T10:37:52;8.83;87.88
72126;SHT31;59999;51.676;22.650;2024-02-23T10:40:20;8.82;87.93
72126;SHT31;59999;51.676;22.650;2024-02-23T10:42:47;8.87;88.54
72126;SHT31;59999;51.676;22.650;2024-02-23T10:45:16;8.89;88.13
72126;SHT31;59999;51.676;22.650;2024-02-23T10:47:43;8.89;88.10
72126;SHT31;59999;51.676;22.650;2024-02-23T10:50:09;8.94;88.42
72126;SHT31;59999;51.676;22.650;2024-02-23T10:52:36;9.00;88.18
72126;SHT31;59999;51.676;22.650;2024-02-23T10:55:04;9.06;88.37
72126;SHT31;59999;51.676;22.650;2024-02-23T10:57:32;9.11;88.02
72126;SHT31;59999;51.676;22.650;2024-02-23T10:59:58;9.14;88.23
72126;SHT31;59999;51.676;22.650;2024-02-23T11:02:26;9.13;88.36
72126;SHT31;59999;51.676;22.650;2024-02-23T11:04:56;9.14;88.25
72126;SHT31;59999;51.676;22.650;2024-02-23T11:07:23;9.16;87.65
72126;SHT31;59999;51.676;22.650;2024-02-23T11:10:13;9.10;87.39
72126;SHT31;59999;51.676;22.650;2024-02-23T11:12:39;9.16;87.79
72126;SHT31;59999;51.676;22.650;2024-02-23T11:15:05;9.20;88.14
72126;SHT31;59999;51.676;22.650;2024-02-23T11:17:32;9.21;87.56
72126;SHT31;59999;51.676;22.650;2024-02-23T11:19:58;9.20;87.87
72126;SHT31;59999;51.676;22.650;2024-02-23T11:22:34;9.23;87.93
72126;SHT31;59999;51.676;22.650;2024-02-23T11:25:04;9.19;87.54
72126;SHT31;59999;51.676;22.650;2024-02-23T11:27:33;9.14;87.78
72126;SHT31;59999;51.676;22.650;2024-02-23T11:30:02;9.09;88.03
72126;SHT31;59999;51.676;22.650;2024-02-23T11:32:39;9.04;88.35
72126;SHT31;59999;51.676;22.650;2024-02-23T11:35:08;9.06;88.37
72126;SHT31;59999;51.676;22.650;2024-02-23T11:37:52;9.04;88.23
72126;SHT31;59999;51.676;22.650;2024-02-23T11:40:25;9.04;88.62
72126;SHT31;59999;51.676;22.650;2024-02-23T11:42:51;9.03;88.61
72126;SHT31;59999;51.676;22.650;2024-02-23T11:45:17;9.02;88.41
72126;SHT31;59999;51.676;22.650;2024-02-23T11:47:43;8.99;88.65
72126;SHT31;59999;51.676;22.650;2024-02-23T11:50:10;8.97;88.48
72126;SHT31;59999;51.676;22.650;2024-02-23T11:52:39;8.93;88.80
72126;SHT31;59999;51.676;22.650;2024-02-23T11:55:06;8.89;88.58
72126;SHT31;59999;51.676;22.650;2024-02-23T11:57:33;8.93;88.69
72126;SHT31;59999;51.676;22.650;2024-02-23T12:00:01;8.89;88.85
72126;SHT31;59999;51.676;22.650;2024-02-23T12:02:28;8.86;88.81
72126;SHT31;59999;51.676;22.650;2024-02-23T12:04:53;8.86;89.03
72126;SHT31;59999;51.676;22.650;2024-02-23T12:07:19;8.86;89.33
72126;SHT31;59999;51.676;22.650;2024-02-23T12:09:47;8.87;89.32
72126;SHT31;59999;51.676;22.650;2024-02-23T12:12:13;8.84;89.23
72126;SHT31;59999;51.676;22.650;2024-02-23T12:14:40;8.87;89.44
72126;SHT31;59999;51.676;22.650;2024-02-23T12:17:08;8.92;89.57
72126;SHT31;59999;51.676;22.650;2024-02-23T12:19:40;8.89;89.32
72126;SHT31;59999;51.676;22.650;2024-02-23T12:22:07;8.89;89.46
72126;SHT31;59999;51.676;22.650;2024-02-23T12:24:34;8.92;89.47
72126;SHT31;59999;51.676;22.650;2024-02-23T12:27:00;8.87;89.39
72126;SHT31;59999;51.676;22.650;2024-02-23T12:29:26;8.84;89.42
72126;SHT31;59999;51.676;22.650;2024-02-23T12:32:03;8.87;89.49
72126;SHT31;59999;51.676;22.650;2024-02-23T12:34:29;8.87;89.54
72126;SHT31;59999;51.676;22.650;2024-02-23T12:36:55;8.87;89.51
72126;SHT31;59999;51.676;22.650;2024-02-23T12:39:21;8.84;89.54
72126;SHT31;59999;51.676;22.650;2024-02-23T12:41:47;8.83;89.72
72126;SHT31;59999;51.676;22.650;2024-02-23T12:44:12;8.79;89.50
72126;SHT31;59999;51.676;22.650;2024-02-23T12:46:39;8.76;89.52
72126;SHT31;59999;51.676;22.650;2024-02-23T12:49:04;8.73;89.36
72126;SHT31;59999;51.676;22.650;2024-02-23T12:51:30;8.69;89.27
72126;SHT31;59999;51.676;22.650;2024-02-23T12:53:56;8.68;89.48
72126;SHT31;59999;51.676;22.650;2024-02-23T12:56:22;8.66;89.38
72126;SHT31;59999;51.676;22.650;2024-02-23T12:58:48;8.66;89.47
72126;SHT31;59999;51.676;22.650;2024-02-23T13:01:14;8.68;89.44
72126;SHT31;59999;51.676;22.650;2024-02-23T13:03:40;8.59;89.49
72126;SHT31;59999;51.676;22.650;2024-02-23T13:06:06;8.63;89.52
72126;SHT31;59999;51.676;22.650;2024-02-23T13:08:33;8.62;89.43
72126;SHT31;59999;51.676;22.650;2024-02-23T13:11:00;8.65;89.23
72126;SHT31;59999;51.676;22.650;2024-02-23T13:13:26;8.65;89.61
72126;SHT31;59999;51.676;22.650;2024-02-23T13:15:53;8.62;89.82
72126;SHT31;59999;51.676;22.650;2024-02-23T13:18:19;8.62;89.62
72126;SHT31;59999;51.676;22.650;2024-02-23T13:20:45;8.58;89.80
72126;SHT31;59999;51.676;22.650;2024-02-23T13:23:11;8.62;89.90
72126;SHT31;59999;51.676;22.650;2024-02-23T13:25:39;8.65;90.02
72126;SHT31;59999;51.676;22.650;2024-02-23T13:28:06;8.69;90.00
72126;SHT31;59999;51.676;22.650;2024-02-23T13:30:33;8.72;89.58
72126;SHT31;59999;51.676;22.650;2024-02-23T13:32:58;8.68;89.45
72126;SHT31;59999;51.676;22.650;2024-02-23T13:35:24;8.69;89.49
72126;SHT31;59999;51.676;22.650;2024-02-23T13:37:51;8.62;89.62
72126;SHT31;59999;51.676;22.650;2024-02-23T13:40:17;8.65;89.77
72126;SHT31;59999;51.676;22.650;2024-02-23T13:42:42;8.63;89.66
72126;SHT31;59999;51.676;22.650;2024-02-23T13:45:11;8.65;89.58
72126;SHT31;59999;51.676;22.650;2024-02-23T13:47:39;8.59;89.61
72126;SHT31;59999;51.676;22.650;2024-02-23T13:50:06;8.56;89.84
72126;SHT31;59999;51.676;22.650;2024-02-23T13:52:32;8.52;90.03
72126;SHT31;59999;51.676;22.650;2024-02-23T13:54:58;8.55;89.88
72126;SHT31;59999;51.676;22.650;2024-02-23T13:57:24;8.56;89.61
72126;SHT31;59999;51.676;22.650;2024-02-23T13:59:50;8.52;89.48
72126;SHT31;59999;51.676;22.650;2024-02-23T14:02:16;8.54;89.87
72126;SHT31;59999;51.676;22.650;2024-02-23T14:04:44;8.51;89.99
72126;SHT31;59999;51.676;22.650;2024-02-23T14:07:10;8.48;89.86
72126;SHT31;59999;51.676;22.650;2024-02-23T14:09:36;8.49;89.90
72126;SHT31;59999;51.676;22.650;2024-02-23T14:12:02;8.45;89.97
72126;SHT31;59999;51.676;22.650;2024-02-23T14:14:28;8.44;89.97
72126;SHT31;59999;51.676;22.650;2024-02-23T14:16:54;8.45;90.16
72126;SHT31;59999;51.676;22.650;2024-02-23T14:19:20;8.45;90.12
72126;SHT31;59999;51.676;22.650;2024-02-23T14:21:46;8.42;90.01
72126;SHT31;59999;51.676;22.650;2024-02-23T14:24:14;8.38;90.20
72126;SHT31;59999;51.676;22.650;2024-02-23T14:26:39;8.35;90.28
72126;SHT31;59999;51.676;22.650;2024-02-23T14:29:05;8.42;90.30
72126;SHT31;59999;51.676;22.650;2024-02-23T14:31:31;8.40;90.39
72126;SHT31;59999;51.676;22.650;2024-02-23T14:33:58;8.35;90.50
72126;SHT31;59999;51.676;22.650;2024-02-23T14:36:23;8.34;90.49
72126;SHT31;59999;51.676;22.650;2024-02-23T14:38:52;8.35;90.53
72126;SHT31;59999;51.676;22.650;2024-02-23T14:41:17;8.37;90.63
72126;SHT31;59999;51.676;22.650;2024-02-23T14:43:44;8.37;90.64
72126;SHT31;59999;51.676;22.650;2024-02-23T14:46:09;8.41;90.76
72126;SHT31;59999;51.676;22.650;2024-02-23T14:48:35;8.37;90.86
72126;SHT31;59999;51.676;22.650;2024-02-23T14:51:01;8.35;90.93
72126;SHT31;59999;51.676;22.650;2024-02-23T14:53:30;8.37;91.03
72126;SHT31;59999;51.676;22.650;2024-02-23T14:55:55;8.37;91.12
72126;SHT31;59999;51.676;22.650;2024-02-23T14:58:21;8.35;91.21
72126;SHT31;59999;51.676;22.650;2024-02-23T15:00:47;8.34;91.31
72126;SHT31;59999;51.676;22.650;2024-02-23T15:03:13;8.37;91.25
72126;SHT31;59999;51.676;22.650;2024-02-23T15:05:40;8.34;91.35
72126;SHT31;59999;51.676;22.650;2024-02-23T15:08:06;8.33;91.37
72126;SHT31;59999;51.676;22.650;2024-02-23T15:10:33;8.33;91.40
72126;SHT31;59999;51.676;22.650;2024-02-23T15:12:59;8.31;91.39
72126;SHT31;59999;51.676;22.650;2024-02-23T15:15:25;8.28;91.44
72126;SHT31;59999;51.676;22.650;2024-02-23T15:17:51;8.28;91.43
72126;SHT31;59999;51.676;22.650;2024-02-23T15:20:18;8.28;91.44
72126;SHT31;59999;51.676;22.650;2024-02-23T15:22:45;8.25;91.49
72126;SHT31;59999;51.676;22.650;2024-02-23T15:25:12;8.27;91.54